Stoystown, Pennsylvania
Current Conditions -  °F | °C
As of 11:15 PM on Thursday 27 Nov 2014 (Local Time) from K2G9 Reporting Station
Light Snow Light Snow  
Wind Chill: 13°   Ceiling: 1400
Heat Index: 25°   Visibility: 4mi
Dew Point: 21°   Wind: 14mph
Humidity: 86%   Direction: 280°W
Pressure: 30.12"   Gusts: 20mph
Location:  40.1°N, 78.95°W
Report Text: K2G9 280415Z AUTO 28012G17KT 4SM -SN OVC014 M04/M06 A3012 RMK AO2
Loading
Personal Weather Stations






























Interactive Weather Map New forecast layout! Learn more

10-Day Weather Forecast

Advertisements
Track Severe Weather on mobile